createdAt,value
2018-12-21T00:00:42.873Z,7.57
2018-12-21T00:03:11.258Z,7.70
2018-12-21T00:05:39.864Z,9.33
2018-12-21T00:08:08.191Z,8.17
2018-12-21T00:10:36.535Z,8.20
2018-12-21T00:13:04.925Z,7.07
2018-12-21T00:15:33.267Z,6.57
2018-12-21T00:18:01.745Z,6.20
2018-12-21T00:20:30.208Z,7.37
2018-12-21T00:22:58.549Z,7.03
2018-12-21T00:25:26.939Z,6.63
2018-12-21T00:27:55.466Z,6.30
2018-12-21T00:30:23.166Z,6.30
2018-12-21T00:32:57.459Z,6.47
2018-12-21T00:35:31.639Z,7.17
2018-12-21T00:38:05.734Z,6.77
2018-12-21T00:40:39.539Z,7.20
2018-12-21T00:43:40.711Z,8.23
2018-12-21T00:46:44.020Z,7.00
2018-12-21T00:49:12.534Z,7.40
2018-12-21T00:51:41.014Z,8.50
2018-12-21T00:54:10.144Z,6.63
2018-12-21T00:56:38.546Z,7.20
2018-12-21T00:59:06.943Z,7.27
2018-12-21T01:01:35.273Z,6.43
2018-12-21T01:04:03.735Z,6.73
2018-12-21T01:06:32.138Z,6.97
2018-12-21T01:09:01.729Z,6.37
2018-12-21T01:11:30.381Z,6.53
2018-12-21T01:13:58.733Z,6.10
2018-12-21T01:16:27.137Z,5.93
2018-12-21T01:18:55.689Z,5.47
2018-12-21T01:21:24.699Z,6.30
2018-12-21T01:23:53.221Z,5.37
2018-12-21T01:26:21.689Z,5.77
2018-12-21T01:28:50.161Z,5.90
2018-12-21T01:31:18.673Z,5.90
2018-12-21T01:33:47.021Z,6.00
2018-12-21T01:36:15.567Z,7.83
2018-12-21T01:38:43.983Z,6.17
2018-12-21T01:41:12.663Z,6.20
2018-12-21T01:43:41.124Z,5.97
2018-12-21T01:46:09.660Z,6.00
2018-12-21T01:48:38.110Z,5.80
2018-12-21T01:51:06.631Z,5.70
2018-12-21T01:53:34.965Z,6.07
2018-12-21T01:56:03.416Z,5.97
2018-12-21T01:58:31.785Z,5.17
2018-12-21T02:01:00.123Z,5.07
2018-12-21T02:03:28.494Z,4.57
2018-12-21T02:05:56.976Z,5.30
2018-12-21T02:08:25.502Z,6.97
2018-12-21T02:10:53.874Z,4.97
2018-12-21T02:13:22.249Z,6.07
2018-12-21T02:15:50.616Z,5.70
2018-12-21T02:18:18.938Z,5.80
2018-12-21T02:20:47.341Z,11.13
2018-12-21T02:23:15.655Z,5.70
2018-12-21T02:25:43.975Z,5.30
2018-12-21T02:28:12.356Z,5.27
2018-12-21T02:30:40.701Z,5.80
2018-12-21T02:33:09.043Z,5.80
2018-12-21T02:35:37.427Z,4.70
2018-12-21T02:38:05.743Z,8.60
2018-12-21T02:40:34.080Z,5.17
2018-12-21T02:43:02.654Z,5.03
2018-12-21T02:45:31.036Z,6.47
2018-12-21T02:47:59.377Z,5.37
2018-12-21T02:50:27.712Z,5.47
2018-12-21T02:52:56.083Z,5.43
2018-12-21T02:55:24.455Z,4.37
2018-12-21T02:57:52.808Z,4.13
2018-12-21T03:00:21.327Z,4.67
2018-12-21T03:02:49.683Z,4.10
2018-12-21T03:05:18.134Z,3.50
2018-12-21T03:07:46.505Z,3.63
2018-12-21T03:10:15.675Z,4.17
2018-12-21T03:12:44.068Z,4.07
2018-12-21T03:15:12.473Z,3.60
2018-12-21T03:17:40.825Z,4.17
2018-12-21T03:20:09.425Z,3.70
2018-12-21T03:22:37.804Z,4.53
2018-12-21T03:25:06.255Z,4.30
2018-12-21T03:27:34.617Z,4.47
2018-12-21T03:30:03.228Z,4.53
2018-12-21T03:32:31.796Z,5.37
2018-12-21T03:35:00.129Z,4.87
2018-12-21T03:37:28.503Z,4.50
2018-12-21T03:39:56.826Z,4.80
2018-12-21T03:42:25.179Z,4.23
2018-12-21T03:44:53.696Z,4.20
2018-12-21T03:47:22.091Z,3.90
2018-12-21T03:49:50.443Z,3.70
2018-12-21T03:52:24.138Z,4.20
2018-12-21T03:54:49.301Z,3.60
2018-12-21T03:57:17.637Z,3.73
2018-12-21T03:59:45.975Z,3.80
2018-12-21T04:02:14.343Z,3.90
2018-12-21T04:04:42.723Z,3.63
2018-12-21T04:07:11.064Z,3.53
2018-12-21T04:09:39.481Z,3.50
2018-12-21T04:12:07.867Z,3.90
2018-12-21T04:14:36.253Z,3.60
2018-12-21T04:17:04.869Z,3.33
2018-12-21T04:19:33.205Z,3.77
2018-12-21T04:22:01.539Z,3.10
2018-12-21T04:24:29.937Z,3.63
2018-12-21T04:26:58.270Z,3.70
2018-12-21T04:29:26.641Z,3.07
2018-12-21T04:31:54.971Z,3.27
2018-12-21T04:34:23.358Z,3.40
2018-12-21T04:36:51.796Z,3.23
2018-12-21T04:39:20.332Z,3.57
2018-12-21T04:41:48.670Z,3.40
2018-12-21T04:44:17.069Z,3.10
2018-12-21T04:46:45.563Z,3.27
2018-12-21T04:49:14.017Z,3.20
2018-12-21T04:51:42.350Z,3.90
2018-12-21T04:54:10.927Z,3.90
2018-12-21T04:56:39.270Z,3.47
2018-12-21T04:59:09.597Z,3.33
2018-12-21T05:01:38.268Z,3.13
2018-12-21T05:04:06.577Z,3.17
2018-12-21T05:06:34.920Z,2.90
2018-12-21T05:09:04.653Z,3.27
2018-12-21T05:11:32.989Z,3.17
2018-12-21T05:14:01.343Z,3.17
2018-12-21T05:16:29.716Z,3.07
2018-12-21T05:18:58.065Z,3.23
2018-12-21T05:21:26.458Z,4.53
2018-12-21T05:23:54.881Z,3.47
2018-12-21T05:26:23.258Z,3.77
2018-12-21T05:28:51.602Z,3.10
2018-12-21T05:31:28.081Z,3.43
2018-12-21T05:33:50.338Z,3.00
2018-12-21T05:36:18.672Z,3.43
2018-12-21T05:38:47.029Z,3.47
2018-12-21T05:41:15.464Z,3.60
2018-12-21T05:43:43.803Z,3.67
2018-12-21T05:46:12.131Z,3.00
2018-12-21T05:48:40.985Z,2.90
2018-12-21T05:51:09.349Z,3.13
2018-12-21T05:53:37.735Z,3.07
2018-12-21T05:56:06.318Z,2.90
2018-12-21T05:58:34.761Z,2.90
2018-12-21T06:01:03.174Z,2.80
2018-12-21T06:03:31.578Z,2.80
2018-12-21T06:05:59.963Z,3.13
2018-12-21T06:08:28.325Z,2.77
2018-12-21T06:10:56.679Z,3.30
2018-12-21T06:13:25.055Z,2.80
2018-12-21T06:15:53.504Z,3.40
2018-12-21T06:18:21.946Z,3.10
2018-12-21T06:20:50.319Z,3.00
2018-12-21T06:23:18.685Z,2.73
2018-12-21T06:25:47.074Z,2.90
2018-12-21T06:28:15.546Z,3.50
2018-12-21T06:30:43.875Z,3.10
2018-12-21T06:33:12.269Z,3.30
2018-12-21T06:35:40.589Z,3.10
2018-12-21T06:38:09.520Z,3.10
2018-12-21T06:40:38.411Z,3.40
2018-12-21T06:43:06.749Z,3.30
2018-12-21T06:45:35.165Z,3.63
2018-12-21T06:48:03.515Z,3.13
2018-12-21T06:50:31.834Z,3.27
2018-12-21T06:53:00.289Z,3.57
2018-12-21T06:55:28.635Z,3.50
2018-12-21T06:57:56.975Z,3.00
2018-12-21T07:00:25.377Z,3.00
2018-12-21T07:02:54.063Z,3.17
2018-12-21T07:05:22.387Z,3.40
2018-12-21T07:07:50.777Z,3.30
2018-12-21T07:10:19.134Z,3.23
2018-12-21T07:12:47.547Z,3.20
2018-12-21T07:15:15.869Z,3.50
2018-12-21T07:17:44.209Z,3.17
2018-12-21T07:20:12.676Z,3.03
2018-12-21T07:22:41.009Z,3.33
2018-12-21T07:25:09.559Z,3.43
2018-12-21T07:27:38.184Z,3.33
2018-12-21T07:30:09.861Z,3.57
2018-12-21T07:32:38.255Z,3.30
2018-12-21T07:35:09.568Z,2.90
2018-12-21T07:37:38.049Z,3.33
2018-12-21T07:40:07.809Z,3.40
2018-12-21T07:42:36.172Z,3.83
2018-12-21T07:45:04.923Z,3.30
2018-12-21T07:47:33.255Z,3.63
2018-12-21T07:50:01.648Z,3.70
2018-12-21T07:52:30.067Z,3.40
2018-12-21T07:54:58.455Z,3.27
2018-12-21T07:57:26.858Z,3.30
2018-12-21T07:59:55.190Z,3.50
2018-12-21T08:02:24.082Z,2.70
2018-12-21T08:04:52.518Z,3.07
2018-12-21T08:07:20.910Z,2.83
2018-12-21T08:09:49.258Z,2.63
2018-12-21T08:12:17.588Z,2.87
2018-12-21T08:14:45.948Z,2.80
2018-12-21T08:17:14.524Z,2.77
2018-12-21T08:19:42.888Z,2.70
2018-12-21T08:22:11.264Z,2.70
2018-12-21T08:24:39.600Z,2.90
2018-12-21T08:27:08.660Z,2.83
2018-12-21T08:29:36.987Z,2.40
2018-12-21T08:32:05.329Z,2.70
2018-12-21T08:34:33.734Z,2.60
2018-12-21T08:37:02.070Z,2.47
2018-12-21T08:39:30.418Z,2.37
2018-12-21T08:41:58.790Z,2.67
2018-12-21T08:44:27.102Z,2.60
2018-12-21T08:46:55.495Z,2.77
2018-12-21T08:49:23.832Z,2.57
2018-12-21T08:51:52.230Z,2.47
2018-12-21T08:54:20.612Z,2.70
2018-12-21T08:56:48.946Z,2.93
2018-12-21T08:59:17.344Z,2.63
2018-12-21T09:01:46.620Z,3.20
2018-12-21T09:04:14.958Z,2.73
2018-12-21T09:06:43.522Z,2.97
2018-12-21T09:09:11.860Z,2.90
2018-12-21T09:11:40.188Z,2.70
2018-12-21T09:14:08.548Z,2.47
2018-12-21T09:16:37.190Z,2.40
2018-12-21T09:19:05.715Z,2.13
2018-12-21T09:21:34.075Z,2.73
2018-12-21T09:24:02.420Z,2.67
2018-12-21T09:26:30.883Z,2.17
2018-12-21T09:28:59.263Z,2.13
2018-12-21T09:31:28.217Z,2.17
2018-12-21T09:33:56.620Z,1.90
2018-12-21T09:36:24.948Z,2.00
2018-12-21T09:38:53.307Z,1.90
2018-12-21T09:41:21.729Z,1.87
2018-12-21T09:43:50.084Z,1.90
2018-12-21T09:46:18.411Z,2.20
2018-12-21T09:48:46.838Z,2.10
2018-12-21T09:51:15.654Z,1.80
2018-12-21T09:53:44.079Z,2.00
2018-12-21T09:56:12.557Z,1.70
2018-12-21T09:58:40.897Z,1.70
2018-12-21T10:01:09.235Z,1.90
2018-12-21T10:03:37.873Z,1.87
2018-12-21T10:06:06.219Z,1.90
2018-12-21T10:08:34.542Z,1.90
2018-12-21T10:11:02.951Z,1.60
2018-12-21T10:13:31.309Z,1.70
2018-12-21T10:15:59.660Z,1.63
2018-12-21T10:18:28.089Z,1.40
2018-12-21T10:20:56.424Z,1.47
2018-12-21T10:23:24.771Z,1.50
2018-12-21T10:25:53.199Z,1.67
2018-12-21T10:28:21.637Z,1.67
2018-12-21T10:30:49.997Z,1.50
2018-12-21T10:33:18.505Z,1.43
2018-12-21T10:35:46.887Z,1.60
2018-12-21T10:38:15.240Z,1.30
2018-12-21T10:40:43.783Z,1.40
2018-12-21T10:43:12.232Z,1.30
2018-12-21T10:45:41.677Z,1.40
2018-12-21T10:48:10.503Z,1.20
2018-12-21T10:50:38.833Z,1.47
2018-12-21T10:53:07.312Z,1.23
2018-12-21T10:55:35.703Z,1.40
2018-12-21T10:58:04.137Z,1.13
2018-12-21T11:00:32.561Z,1.43
2018-12-21T11:03:01.525Z,1.17
2018-12-21T11:05:29.905Z,1.10
2018-12-21T11:07:58.230Z,1.03
2018-12-21T11:10:26.725Z,1.10
2018-12-21T11:12:55.123Z,1.17
2018-12-21T11:15:23.569Z,1.40
2018-12-21T11:17:52.065Z,1.10
2018-12-21T11:20:20.402Z,1.03
2018-12-21T11:22:48.863Z,1.00
2018-12-21T11:25:17.463Z,1.40
2018-12-21T11:27:45.975Z,1.30
2018-12-21T11:30:14.384Z,0.90
2018-12-21T11:32:42.765Z,1.30
2018-12-21T11:35:11.095Z,1.30
2018-12-21T11:37:39.791Z,1.77
2018-12-21T11:40:08.343Z,1.00
2018-12-21T11:42:36.743Z,1.07
2018-12-21T11:45:06.941Z,1.20
2018-12-21T11:47:35.349Z,1.00
2018-12-21T11:50:04.689Z,1.20
2018-12-21T11:52:33.032Z,1.30
2018-12-21T11:55:01.430Z,1.30
2018-12-21T11:57:29.909Z,1.17
2018-12-21T11:59:58.253Z,1.23
2018-12-21T12:02:26.605Z,1.10
2018-12-21T12:04:55.009Z,1.30
2018-12-21T12:07:23.363Z,1.20
2018-12-21T12:09:51.917Z,1.37
2018-12-21T12:12:20.325Z,1.00
2018-12-21T12:14:48.702Z,1.80
2018-12-21T12:17:17.127Z,1.40
2018-12-21T12:19:45.495Z,1.43
2018-12-21T12:22:13.909Z,1.40
2018-12-21T12:24:42.283Z,1.50
2018-12-21T12:27:10.657Z,1.60
2018-12-21T12:29:39.079Z,1.43
2018-12-21T12:32:07.424Z,1.30
2018-12-21T12:34:38.387Z,1.57
2018-12-21T12:37:07.895Z,1.83
2018-12-21T12:39:36.287Z,1.90
2018-12-21T12:42:04.671Z,2.87
2018-12-21T12:44:33.033Z,2.53
2018-12-21T12:47:01.833Z,2.83
2018-12-21T12:49:30.227Z,2.10
2018-12-21T12:51:58.714Z,2.20
2018-12-21T12:54:28.039Z,3.20
2018-12-21T12:56:56.378Z,3.30
2018-12-21T12:59:24.995Z,2.10
2018-12-21T13:01:53.449Z,3.63
2018-12-21T13:04:21.810Z,3.37
2018-12-21T13:06:50.159Z,2.50
2018-12-21T13:09:19.244Z,2.40
2018-12-21T13:11:47.610Z,2.40
2018-12-21T13:14:16.658Z,1.73
2018-12-21T13:16:46.029Z,1.73
2018-12-21T13:19:14.447Z,1.57
2018-12-21T13:21:42.833Z,1.80
2018-12-21T13:24:11.353Z,1.77
2018-12-21T13:26:39.726Z,1.60
2018-12-21T13:29:08.371Z,2.63
2018-12-21T13:31:36.805Z,1.80
2018-12-21T13:34:05.170Z,1.80
2018-12-21T13:36:34.074Z,1.43
2018-12-21T13:39:02.932Z,1.70
2018-12-21T13:41:31.271Z,2.40
2018-12-21T13:43:59.682Z,2.57
2018-12-21T13:46:28.036Z,1.67
2018-12-21T13:48:56.389Z,1.20
2018-12-21T13:51:24.812Z,1.07
2018-12-21T13:53:53.144Z,1.20
2018-12-21T13:56:21.484Z,1.50
2018-12-21T13:58:49.893Z,1.20
2018-12-21T14:01:18.384Z,1.93
2018-12-21T14:03:46.804Z,1.50
2018-12-21T14:06:15.149Z,2.07
2018-12-21T14:08:43.526Z,1.50
2018-12-21T14:11:11.906Z,1.97
2018-12-21T14:13:40.374Z,1.20
2018-12-21T14:16:08.851Z,2.20
2018-12-21T14:18:37.188Z,1.30
2018-12-21T14:21:05.707Z,2.00
2018-12-21T14:23:34.062Z,2.27
2018-12-21T14:26:02.463Z,1.50
2018-12-21T14:28:30.887Z,2.90
2018-12-21T14:30:59.214Z,3.90
2018-12-21T14:33:27.619Z,4.20
2018-12-21T14:35:56.026Z,3.67
2018-12-21T14:38:24.407Z,5.40
2018-12-21T14:40:52.795Z,3.43
2018-12-21T14:43:21.227Z,7.77
2018-12-21T14:45:49.792Z,1.80
2018-12-21T14:48:18.151Z,1.90
2018-12-21T14:50:46.478Z,3.67
2018-12-21T14:53:14.886Z,3.23
2018-12-21T14:55:43.266Z,2.73
2018-12-21T14:58:11.688Z,2.23
2018-12-21T15:00:40.088Z,1.33
2018-12-21T15:03:08.449Z,2.10
2018-12-21T15:05:36.836Z,1.80
2018-12-21T15:08:05.162Z,1.60
2018-12-21T15:10:33.568Z,1.07
2018-12-21T15:13:01.946Z,1.13
2018-12-21T15:15:30.454Z,1.47
2018-12-21T15:17:58.888Z,1.67
2018-12-21T15:20:27.435Z,1.60
2018-12-21T15:22:55.781Z,1.97
2018-12-21T15:25:24.496Z,2.10
2018-12-21T15:27:52.894Z,2.17
2018-12-21T15:30:21.280Z,2.10
2018-12-21T15:32:49.594Z,1.90
2018-12-21T15:35:18.009Z,2.43
2018-12-21T15:37:46.378Z,2.40
2018-12-21T15:40:15.369Z,12.03
2018-12-21T15:42:43.731Z,5.23
2018-12-21T15:45:12.367Z,6.37
2018-12-21T15:47:40.852Z,2.33
2018-12-21T15:50:11.668Z,1.63
2018-12-21T15:52:42.096Z,0.90
2018-12-21T15:55:10.555Z,0.80
2018-12-21T15:57:39.058Z,1.00
2018-12-21T16:00:11.037Z,1.40
2018-12-21T16:02:40.485Z,1.10
2018-12-21T16:05:08.870Z,1.10
2018-12-21T16:07:37.390Z,0.97
2018-12-21T16:10:07.025Z,1.00
2018-12-21T16:12:35.367Z,1.13
2018-12-21T16:15:04.159Z,1.40
2018-12-21T16:17:33.107Z,3.47
2018-12-21T16:20:01.467Z,3.77
2018-12-21T16:22:29.910Z,3.00
2018-12-21T16:24:58.888Z,2.60
2018-12-21T16:27:27.278Z,2.77
2018-12-21T16:29:55.673Z,1.90
2018-12-21T16:32:24.953Z,1.40
2018-12-21T16:34:53.330Z,1.20
2018-12-21T16:37:21.833Z,1.20
2018-12-21T16:39:59.586Z,1.20
2018-12-21T16:42:27.962Z,1.40
2018-12-21T16:44:56.531Z,1.20
2018-12-21T16:47:24.871Z,1.30
2018-12-21T16:49:53.318Z,1.70
2018-12-21T16:52:34.155Z,1.30
2018-12-21T16:55:02.490Z,1.60
2018-12-21T16:57:30.892Z,1.60
2018-12-21T16:59:59.290Z,1.50
2018-12-21T17:02:27.774Z,1.40
2018-12-21T17:04:56.109Z,1.30
2018-12-21T17:07:24.597Z,1.40
2018-12-21T17:09:53.027Z,1.17
2018-12-21T17:12:21.357Z,1.20
2018-12-21T17:14:49.697Z,1.33
2018-12-21T17:17:18.077Z,1.40
2018-12-21T17:19:46.439Z,1.30
2018-12-21T17:22:14.942Z,1.80
2018-12-21T17:24:43.420Z,1.60
2018-12-21T17:27:11.751Z,1.10
2018-12-21T17:29:40.292Z,1.60
2018-12-21T17:32:08.722Z,6.13
2018-12-21T17:34:37.079Z,4.60
2018-12-21T17:37:05.611Z,5.10
2018-12-21T17:39:34.033Z,4.07
2018-12-21T17:42:02.357Z,4.70
2018-12-21T17:44:30.759Z,5.30
2018-12-21T17:46:59.115Z,1.97
2018-12-21T17:49:27.511Z,1.60
2018-12-21T17:52:01.424Z,1.50
2018-12-21T17:54:26.323Z,1.13
2018-12-21T17:56:54.778Z,1.60
2018-12-21T17:59:28.084Z,1.40
2018-12-21T18:01:56.494Z,1.70
2018-12-21T18:04:28.406Z,1.63
2018-12-21T18:06:57.100Z,2.13
2018-12-21T18:09:29.505Z,1.23
2018-12-21T18:11:57.835Z,1.40
2018-12-21T18:14:26.214Z,1.20
2018-12-21T18:16:54.776Z,1.00
2018-12-21T18:19:23.137Z,1.17
2018-12-21T18:21:58.590Z,1.20
2018-12-21T18:24:28.113Z,1.00
2018-12-21T18:26:56.565Z,1.20
2018-12-21T18:29:27.905Z,1.17
2018-12-21T18:32:04.188Z,1.03
2018-12-21T18:34:35.677Z,1.43
2018-12-21T18:37:06.541Z,1.30
2018-12-21T18:39:35.341Z,1.20
2018-12-21T18:42:05.771Z,1.30
2018-12-21T18:44:34.544Z,1.20
2018-12-21T18:47:03.041Z,1.10
2018-12-21T18:49:32.507Z,1.30
2018-12-21T18:52:01.877Z,1.10
2018-12-21T18:54:30.235Z,1.30
2018-12-21T18:57:01.407Z,1.23
2018-12-21T18:59:30.357Z,1.27
2018-12-21T19:01:59.894Z,1.40
2018-12-21T19:04:28.235Z,1.53
2018-12-21T19:06:56.728Z,1.47
2018-12-21T19:09:25.438Z,1.40
2018-12-21T19:11:53.839Z,1.50
2018-12-21T19:14:22.197Z,1.30
2018-12-21T19:16:50.842Z,1.50
2018-12-21T19:19:19.227Z,1.70
2018-12-21T19:21:47.607Z,1.70
2018-12-21T19:24:15.983Z,1.53
2018-12-21T19:26:44.357Z,1.50
2018-12-21T19:29:12.719Z,1.43
2018-12-21T19:31:41.203Z,1.40
2018-12-21T19:34:09.531Z,1.70
2018-12-21T19:36:38.075Z,1.50
2018-12-21T19:39:08.990Z,1.60
2018-12-21T19:41:37.483Z,1.50
2018-12-21T19:44:05.859Z,1.70
2018-12-21T19:46:34.244Z,1.80
2018-12-21T19:49:02.593Z,1.90
2018-12-21T19:51:31.054Z,1.90
2018-12-21T19:53:59.455Z,2.13
2018-12-21T19:56:41.123Z,2.30
2018-12-21T19:59:09.545Z,2.30
2018-12-21T20:01:37.908Z,2.00
2018-12-21T20:04:06.275Z,2.13
2018-12-21T20:06:35.192Z,2.30
2018-12-21T20:09:05.658Z,3.40
2018-12-21T20:11:34.089Z,3.77
2018-12-21T20:14:02.498Z,3.33
2018-12-21T20:16:31.336Z,4.37
2018-12-21T20:18:59.837Z,3.10
2018-12-21T20:21:28.328Z,2.83
2018-12-21T20:23:56.737Z,4.60
2018-12-21T20:26:25.141Z,2.53
2018-12-21T20:28:53.522Z,3.20
2018-12-21T20:31:21.874Z,3.27
2018-12-21T20:33:50.261Z,2.47
2018-12-21T20:36:18.670Z,2.47
2018-12-21T20:38:48.322Z,2.57
2018-12-21T20:41:16.706Z,3.07
2018-12-21T20:43:45.065Z,2.30
2018-12-21T20:46:13.660Z,2.50
2018-12-21T20:48:42.271Z,2.13
2018-12-21T20:51:10.621Z,2.13
2018-12-21T20:53:39.106Z,2.53
2018-12-21T20:56:07.499Z,2.13
2018-12-21T20:58:45.337Z,3.40
2018-12-21T21:01:13.691Z,9.37
2018-12-21T21:03:42.109Z,11.10
2018-12-21T21:06:10.483Z,5.13
2018-12-21T21:08:39.627Z,2.63
2018-12-21T21:11:08.013Z,3.90
2018-12-21T21:13:36.657Z,3.43
2018-12-21T21:16:05.024Z,4.80
2018-12-21T21:18:33.449Z,3.50
2018-12-21T21:21:02.939Z,2.30
2018-12-21T21:23:31.273Z,2.20
2018-12-21T21:25:59.774Z,2.60
2018-12-21T21:28:28.099Z,1.97
2018-12-21T21:30:56.449Z,2.50
2018-12-21T21:33:24.861Z,2.60
2018-12-21T21:35:53.188Z,2.13
2018-12-21T21:38:21.523Z,2.00
2018-12-21T21:40:49.954Z,3.17
2018-12-21T21:43:20.078Z,3.13
2018-12-21T21:45:48.461Z,2.90
2018-12-21T21:48:16.860Z,2.70
2018-12-21T21:50:45.192Z,2.60
2018-12-21T21:53:13.541Z,2.67
2018-12-21T21:55:41.923Z,2.37
2018-12-21T21:58:10.275Z,2.67
2018-12-21T22:00:38.664Z,2.47
2018-12-21T22:03:07.015Z,2.70
2018-12-21T22:05:35.354Z,2.23
2018-12-21T22:08:03.902Z,2.87
2018-12-21T22:10:32.251Z,2.17
2018-12-21T22:13:01.262Z,2.53
2018-12-21T22:15:29.814Z,2.17
2018-12-21T22:17:58.547Z,2.40
2018-12-21T22:20:26.958Z,2.33
2018-12-21T22:22:55.285Z,1.73
2018-12-21T22:25:23.746Z,2.10
2018-12-21T22:27:52.180Z,2.47
2018-12-21T22:30:20.541Z,2.50
2018-12-21T22:32:48.867Z,2.13
2018-12-21T22:35:17.842Z,1.90
2018-12-21T22:37:46.171Z,2.10
2018-12-21T22:40:14.497Z,2.23
2018-12-21T22:42:42.881Z,2.60
2018-12-21T22:45:11.316Z,4.10
2018-12-21T22:47:39.659Z,7.50
2018-12-21T22:50:09.127Z,9.80
2018-12-21T22:52:38.514Z,8.23
2018-12-21T22:55:08.353Z,10.83
2018-12-21T22:57:36.987Z,10.03
2018-12-21T23:00:10.422Z,2.50
2018-12-21T23:02:38.793Z,3.60
2018-12-21T23:05:07.303Z,2.90
2018-12-21T23:07:35.693Z,3.10
2018-12-21T23:10:04.374Z,2.33
2018-12-21T23:12:32.789Z,2.43
2018-12-21T23:15:01.148Z,2.63
2018-12-21T23:17:29.482Z,2.20
2018-12-21T23:19:58.102Z,2.13
2018-12-21T23:22:26.564Z,2.00
2018-12-21T23:24:54.939Z,1.80
2018-12-21T23:27:23.698Z,1.80
2018-12-21T23:29:52.445Z,2.00
2018-12-21T23:32:20.796Z,1.73
2018-12-21T23:34:49.295Z,1.80
2018-12-21T23:37:17.750Z,1.50
2018-12-21T23:39:46.090Z,1.73
2018-12-21T23:42:14.464Z,1.40
2018-12-21T23:44:43.222Z,1.30
2018-12-21T23:47:11.753Z,1.30
2018-12-21T23:49:40.346Z,1.20
2018-12-21T23:52:08.726Z,1.27
2018-12-21T23:54:37.121Z,0.83
2018-12-21T23:57:05.499Z,1.00
2018-12-21T23:59:33.834Z,0.90
